Regional Weather

 

KMKL - Jackson, TN, USA
Distance from station: WNW 50mi, 81km
Updated: Tue, Dec-01-2020 5:53pm CST
Clear
Clear
 Wind from SW
Wind: SW 3 mph , 6 km/h
Temperature: 30°F , -1°C
Dew Point: 21°F , -6°C
Humidity: 69%
Barometer: 30.21 inHg , 1023 hPa
Clouds: Clear
Visibility: 10 miles , 16 km
2020/12/01 23:53 KMKL 012353Z 22003KT 10SM CLR M01/M06 A3021 RMK AO2 SLP234 T10061061 10067 21011 53009
KMEM - Memphis, TN, USA
Distance from station: W 108mi, 173km
Updated: Tue, Dec-01-2020 5:54pm CST
Clear
Clear
 Wind from SSW
Wind: SSW 3 mph , 6 km/h
Temperature: 41°F , 5°C
Dew Point: 25°F , -4°C
Humidity: 53%
Barometer: 30.20 inHg , 1022.7 hPa
Clouds: Clear
Visibility: 10 miles , 16 km
2020/12/01 23:54 KMEM 012354Z 21003KT 10SM CLR 05/M04 A3020 RMK AO2 SLP229 T00501044 10100 20044 53005 $
 
KBNA - Nashville, TN, USA
Distance from station: NE 97mi, 157km
Updated: Tue, Dec-01-2020 5:53pm CST
Clear
Clear
 Wind from WSW
Wind: WSW 3 mph , 6 km/h
Temperature: 36°F , 2°C
Dew Point: 19°F , -7°C
Humidity: 52%
Barometer: 30.21 inHg , 1023 hPa
Clouds: Clear
Visibility: 10 miles , 16 km
2020/12/01 23:53 KBNA 012353Z 25003KT 10SM CLR 02/M07 A3021 RMK AO2 SLP236 T00171072 10056 20017 53019
KCKV - Clarksville, TN, USA
Distance from station: NNE 99mi, 159km
Updated: Tue, Dec-01-2020 5:52pm CST
Clear
Clear
 Wind from WSW
Wind: WSW 3 mph , 6 km/h
Temperature: 36°F , 2°C
Dew Point: 19°F , -7°C
Humidity: 52%
Barometer: 30.20 inHg , 1022.7 hPa
Clouds: Clear
Visibility: 10 miles , 16 km
2020/12/01 23:52 KCKV 012352Z AUTO 25003KT 10SM CLR 02/M07 A3020 RMK AO2 SLP232 T00221072 10050 20022 53018
 
KPAH - Paducah, KY, USA
Distance from station: NNW 128mi, 205km
Updated: Tue, Dec-01-2020 5:53pm CST
Clear
Clear
 Wind from SSW
Wind: SSW 3 mph , 6 km/h
Temperature: 34°F , 1°C
Dew Point: 18°F , -8°C
Humidity: 51%
Barometer: 30.20 inHg , 1022.7 hPa
Clouds: Clear
Visibility: 10 miles , 16 km
2020/12/01 23:53 KPAH 012353Z 21003KT 10SM CLR 01/M08 A3020 RMK AO2 SLP230 T00111078 10050 21017 53015
KCHA - Chattanooga, TN, USA
Distance from station: E 165mi, 265km
Updated: Tue, Dec-01-2020 5:53pm CST
Clear
Clear
 Wind from calm
Wind: Calm
Temperature: 36°F , 2°C
Dew Point: 21°F , -6°C
Humidity: 56%
Barometer: 30.20 inHg , 1022.7 hPa
Clouds: Clear
Visibility: 10 miles , 16 km
2020/12/01 23:53 KCHA 012353Z 00000KT 10SM CLR 02/M06 A3020 RMK AO2 SLP229 T00221056 10050 20022 53017 $
 
KTYS - Knoxville, TN, USA
Distance from station: E 234mi, 377km
Updated: Tue, Dec-01-2020 5:53pm CST
Mostly cloudy
Mostly cloudy
 Wind from WNW
Wind: WNW 6 mph , 9 km/h
Temperature: 32°F , 0°C
Wind Chill: 26°F , -3°C
Dew Point: 21°F , -6°C
Humidity: 64%
Barometer: 30.18 inHg , 1022 hPa
Clouds: Mostly cloudy
Visibility: 10 miles , 16 km
Cloud details: Mostly cloudy 3500 ft
2020/12/01 23:53 KTYS 012353Z 29005KT 10SM BKN035 00/M06 A3018 RMK AO2 SLP225 T00001056 10022 21006 53025
KLIT - Little Rock, AR, USA
Distance from station: W 240mi, 386km
Updated: Tue, Dec-01-2020 5:53pm CST
Clear
Clear
 Wind from S
Wind: S 6 mph , 9 km/h
Temperature: 43°F , 6°C
Wind Chill: 39°F , 4°C
Dew Point: 25°F , -4°C
Humidity: 49%
Barometer: 30.17 inHg , 1021.7 hPa
Clouds: Clear
Visibility: 10 miles , 16 km
2020/12/01 23:53 KLIT 012353Z 17005KT 10SM CLR 06/M04 A3017 RMK AO2 SLP220 T00561044 10117 20056 53007

Refresh Page for latest data.